Briefing drone pour La talaudiere

Rechercher une autre localisation

Conditions de vol :


Nous sommes le : Lundi 23 mai 2022
Il est 15:06 UTC (17:06 LT)

Lever de soleil : 03:37 UTC (05:37 LT)
Coucher de soleil : 19:40 UTC (21:40 LT)

Météo

L'essentiel des conditions de vol

VIGILANCE MÉTÉO FRANCE - Loire (42)
Pas de vigilances particulieres
METAR de LFMH
LFMH 231500Z AUTO 25010KT 200V280 9999 FEW047 BKN068 OVC078 23/14 Q1007

Date d'émission: 23/05/2022
Heure d'émission: 15:00 UTC
Vent: 250° (variable du 200° au 280°) pour 10 KT (19 km/h)
Visibilité horizontale: > 10 km
Plafond :
- Peu de nuages à 4700ft (1433m)
- Nuages morcelés à 6800ft (2073m)
- Couvert à 7800ft (2377m)
Température: 23 °C
Point de rosée: 14 °C
Humidité: 57%
Pression (QNH): 1007 hPa
TAF de LFMH
LFMH 161901Z 1619/1712 CNL

Conditions prévues :

Heure d'émission : Bulletin éffectué le 16 à 19:00 UTC
Prévision : Valide du 16 a 19:00 UTC au 17 a 12:00 UTC
Nuages : à 0ft (0 m)
WEBCAM POUR LA TALAUDIERE

Réglementation

Voler en sécurité

CARTES AERONAUTIQUE 1/500.000
CARTES VAC (LFMH)
SUP AIP




Chargement des AIP...
NOTAM (LA TALAUDIERE + Terrain à proximité / FIR )




Chargement des NOTAMS...
CONTACT PREFECTURE 42


Avertissement : Les données mises à disposition sont indicatives. Oxygène Drone ne pourra être tenu responsable de dégâts causés aux biens et aux personnes.